Time;durP1;ratioP1;P1;durP2;ratioP2;P2;SDS_P1;SDS_P2;PMS_P1;PMS_P2;Temp;Humidity;BMP_temperature;BMP_pressure;BME280_temperature;BME280_humidity;BME280_pressure;Samples;Min_cycle;Max_cycle;Signal;HPM_P1;HPM_P2
2022/08/10 00:00:31;;;;;;;;;;;21.60;48.10;;;;;;482372;246;1309;-51
2022/08/10 00:02:32;;;;;;;;;;;21.60;48.10;;;;;;482118;247;1234;-50
2022/08/10 00:04:33;;;;;;;;;;;21.60;48.10;;;;;;482173;247;1288;-51
2022/08/10 00:06:35;;;;;;;;;;;21.70;48.20;;;;;;481964;247;1884;-50
2022/08/10 00:08:36;;;;;;;;;;;21.70;48.10;;;;;;481988;247;1230;-50
2022/08/10 00:10:38;;;;;;;;;;;21.70;48.10;;;;;;482107;246;1226;-50
2022/08/10 00:12:39;;;;;;;;;;;21.70;48.10;;;;;;482038;247;2169;-50
2022/08/10 00:14:40;;;;;;;;;;;21.60;48.10;;;;;;482097;247;1238;-51
2022/08/10 00:16:41;;;;;;;;;;;21.70;48.10;;;;;;481931;247;1265;-51
2022/08/10 00:18:43;;;;;;;;;;;21.60;48.10;;;;;;481806;247;1259;-50
2022/08/10 00:20:44;;;;;;;;;;;21.60;48.10;;;;;;482070;247;1225;-51
2022/08/10 00:22:45;;;;;;;;;;;21.70;48.20;;;;;;482373;247;1311;-51
2022/08/10 00:24:47;;;;;;;;;;;21.60;48.10;;;;;;482130;246;1086;-51
2022/08/10 00:26:48;;;;;;;;;;;21.60;48.20;;;;;;482241;246;1194;-51
2022/08/10 00:28:49;;;;;;;;;;;21.60;48.20;;;;;;482054;247;1234;-50
2022/08/10 00:30:51;;;;;;;;;;;21.60;48.20;;;;;;482226;246;1154;-51
2022/08/10 00:32:52;;;;;;;;;;;21.60;48.20;;;;;;482252;247;2157;-51
2022/08/10 00:34:53;;;;;;;;;;;21.70;48.20;;;;;;482578;246;1284;-51
2022/08/10 00:36:55;;;;;;;;;;;21.70;48.20;;;;;;482213;246;1193;-51
2022/08/10 00:38:56;;;;;;;;;;;21.60;48.20;;;;;;482114;247;1202;-50
2022/08/10 00:40:57;;;;;;;;;;;21.60;48.20;;;;;;482026;247;1215;-51
2022/08/10 00:42:59;;;;;;;;;;;21.70;48.20;;;;;;482471;246;1055;-49
2022/08/10 00:45:00;;;;;;;;;;;21.60;48.20;;;;;;482164;247;1179;-51
2022/08/10 00:47:01;;;;;;;;;;;21.60;48.20;;;;;;482029;246;1223;-50
2022/08/10 00:49:03;;;;;;;;;;;21.70;48.20;;;;;;482270;246;1188;-50
2022/08/10 00:51:04;;;;;;;;;;;21.70;48.30;;;;;;482223;247;1217;-51
2022/08/10 00:53:06;;;;;;;;;;;21.60;48.20;;;;;;482154;247;2157;-50
2022/08/10 00:55:07;;;;;;;;;;;21.60;48.20;;;;;;482194;246;2140;-50
2022/08/10 00:57:08;;;;;;;;;;;21.70;48.20;;;;;;481956;247;1188;-50
2022/08/10 00:59:09;;;;;;;;;;;21.60;48.20;;;;;;482298;246;1223;-51
2022/08/10 01:01:11;;;;;;;;;;;21.60;48.20;;;;;;482542;247;1344;-51
2022/08/10 01:03:12;;;;;;;;;;;21.60;48.30;;;;;;482080;247;1264;-51
2022/08/10 01:05:13;;;;;;;;;;;21.60;48.20;;;;;;481574;246;1168;-50
2022/08/10 01:07:15;;;;;;;;;;;21.60;48.20;;;;;;481981;247;1295;-50
2022/08/10 01:09:16;;;;;;;;;;;21.60;48.20;;;;;;482172;247;1298;-50
2022/08/10 01:11:17;;;;;;;;;;;21.60;48.30;;;;;;482068;247;1191;-51
2022/08/10 01:13:19;;;;;;;;;;;21.60;48.30;;;;;;482373;247;2204;-51
2022/08/10 01:15:20;;;;;;;;;;;21.70;48.30;;;;;;481872;247;1228;-50
2022/08/10 01:17:21;;;;;;;;;;;21.70;48.30;;;;;;482059;247;1252;-50
2022/08/10 01:19:23;;;;;;;;;;;21.70;48.30;;;;;;482110;247;1270;-51
2022/08/10 01:21:24;;;;;;;;;;;21.70;48.30;;;;;;482286;246;1259;-51
2022/08/10 01:23:26;;;;;;;;;;;21.60;48.20;;;;;;482125;247;1375;-51
2022/08/10 01:25:27;;;;;;;;;;;21.60;48.30;;;;;;482042;247;1190;-50
2022/08/10 01:27:28;;;;;;;;;;;21.70;48.30;;;;;;481976;247;1250;-50
2022/08/10 01:29:30;;;;;;;;;;;21.60;48.20;;;;;;482115;247;1212;-50
2022/08/10 01:31:31;;;;;;;;;;;21.60;48.30;;;;;;482110;247;1263;-50
2022/08/10 01:33:32;;;;;;;;;;;21.60;48.40;;;;;;482194;246;2157;-50
2022/08/10 01:35:34;;;;;;;;;;;21.60;48.40;;;;;;482381;247;1207;-51
2022/08/10 01:37:35;;;;;;;;;;;21.60;48.30;;;;;;482473;246;1363;-50
2022/08/10 01:39:36;;;;;;;;;;;21.60;48.30;;;;;;482141;247;1226;-50
2022/08/10 01:41:39;;;;;;;;;;;21.60;48.30;;;;;;482262;247;1302;-50
2022/08/10 01:43:39;;;;;;;;;;;21.60;48.40;;;;;;482139;246;1321;-51
2022/08/10 01:45:40;;;;;;;;;;;21.60;48.40;;;;;;482046;247;1270;-52
2022/08/10 01:50:01;;;;;;;;;;;21.60;48.40;;;;;;481968;247;1247;-51
2022/08/10 01:52:02;;;;;;;;;;;21.60;48.40;;;;;;482198;246;1222;-51
2022/08/10 01:54:03;;;;;;;;;;;21.60;48.40;;;;;;482355;247;2188;-51
2022/08/10 01:56:05;;;;;;;;;;;21.60;48.40;;;;;;482105;247;1252;-50
2022/08/10 01:58:06;;;;;;;;;;;21.60;48.40;;;;;;482369;246;1264;-50
2022/08/10 02:00:07;;;;;;;;;;;21.60;48.40;;;;;;482106;247;1180;-51
2022/08/10 02:02:09;;;;;;;;;;;21.70;48.40;;;;;;482318;247;1312;-50
2022/08/10 02:04:10;;;;;;;;;;;21.60;48.40;;;;;;482511;246;1582;-51
2022/08/10 02:06:11;;;;;;;;;;;21.60;48.40;;;;;;482544;247;1189;-51
2022/08/10 02:08:13;;;;;;;;;;;21.60;48.40;;;;;;482320;246;1127;-50
2022/08/10 02:10:14;;;;;;;;;;;21.60;48.50;;;;;;482090;247;1207;-51
2022/08/10 02:12:16;;;;;;;;;;;21.60;48.40;;;;;;482184;247;1223;-50
2022/08/10 02:14:17;;;;;;;;;;;21.60;48.40;;;;;;482125;247;2154;-50
2022/08/10 02:16:18;;;;;;;;;;;21.60;48.50;;;;;;482154;247;1236;-50
2022/08/10 02:18:19;;;;;;;;;;;21.60;48.50;;;;;;482124;247;1127;-51
2022/08/10 02:20:21;;;;;;;;;;;21.60;48.50;;;;;;482125;247;1325;-50
2022/08/10 02:22:22;;;;;;;;;;;21.60;48.50;;;;;;482399;247;1217;-50
2022/08/10 02:24:23;;;;;;;;;;;21.70;48.50;;;;;;482461;247;1282;-50
2022/08/10 02:26:25;;;;;;;;;;;21.60;48.50;;;;;;482357;247;1337;-50
2022/08/10 02:28:26;;;;;;;;;;;21.60;48.50;;;;;;482522;247;1305;-50
2022/08/10 02:30:28;;;;;;;;;;;21.70;48.50;;;;;;482154;247;1199;-51
2022/08/10 02:32:29;;;;;;;;;;;21.60;48.50;;;;;;482404;247;1275;-51
2022/08/10 02:34:30;;;;;;;;;;;21.60;48.50;;;;;;482328;247;2157;-51
2022/08/10 02:36:32;;;;;;;;;;;21.60;48.50;;;;;;482025;246;1154;-50
2022/08/10 02:38:33;;;;;;;;;;;21.60;48.40;;;;;;482064;247;1344;-51
2022/08/10 02:40:34;;;;;;;;;;;21.70;48.50;;;;;;482116;247;1307;-50
2022/08/10 02:42:36;;;;;;;;;;;21.60;48.50;;;;;;482404;246;1282;-50
2022/08/10 02:44:37;;;;;;;;;;;21.60;48.50;;;;;;482075;247;1219;-50
2022/08/10 02:46:38;;;;;;;;;;;21.60;48.50;;;;;;482251;246;1185;-50
2022/08/10 02:48:40;;;;;;;;;;;21.60;48.50;;;;;;482567;247;1298;-50
2022/08/10 02:50:41;;;;;;;;;;;21.60;48.50;;;;;;482079;247;1066;-51
2022/08/10 02:52:42;;;;;;;;;;;21.60;48.50;;;;;;482249;247;1190;-50
2022/08/10 02:54:44;;;;;;;;;;;21.60;48.50;;;;;;479195;247;2192;-51
2022/08/10 02:56:45;;;;;;;;;;;21.60;48.50;;;;;;482581;247;1321;-50
2022/08/10 02:58:46;;;;;;;;;;;21.60;48.40;;;;;;482234;247;1213;-50
2022/08/10 03:00:48;;;;;;;;;;;21.60;48.50;;;;;;482193;247;1212;-50
2022/08/10 03:02:49;;;;;;;;;;;21.60;48.40;;;;;;481737;247;1201;-50
2022/08/10 03:04:51;;;;;;;;;;;21.60;48.50;;;;;;482012;247;1255;-51
2022/08/10 03:06:52;;;;;;;;;;;21.60;48.50;;;;;;481824;247;2385;-50
2022/08/10 03:08:53;;;;;;;;;;;21.60;48.50;;;;;;481890;247;1320;-51
2022/08/10 03:10:55;;;;;;;;;;;21.60;48.50;;;;;;482355;246;1280;-51
2022/08/10 03:12:56;;;;;;;;;;;21.60;48.50;;;;;;482125;246;1127;-51
2022/08/10 03:14:58;;;;;;;;;;;21.60;48.50;;;;;;482055;247;2201;-51
2022/08/10 03:16:59;;;;;;;;;;;21.60;48.50;;;;;;482204;246;1217;-51
2022/08/10 03:19:00;;;;;;;;;;;21.60;48.50;;;;;;482107;247;1183;-51
2022/08/10 03:21:01;;;;;;;;;;;21.60;48.50;;;;;;482422;247;1173;-50
2022/08/10 03:23:04;;;;;;;;;;;21.60;48.50;;;;;;482360;247;1253;-50
2022/08/10 03:25:04;;;;;;;;;;;21.60;48.50;;;;;;482232;246;2202;-51
2022/08/10 03:27:05;;;;;;;;;;;21.60;48.50;;;;;;481789;247;1172;-51
2022/08/10 03:29:07;;;;;;;;;;;21.60;48.50;;;;;;482024;247;1228;-51
2022/08/10 03:31:08;;;;;;;;;;;21.60;48.60;;;;;;482099;247;1247;-51
2022/08/10 03:33:09;;;;;;;;;;;21.60;48.60;;;;;;482466;247;1145;-52
2022/08/10 03:35:11;;;;;;;;;;;21.60;48.60;;;;;;482489;246;2212;-51
2022/08/10 03:37:12;;;;;;;;;;;21.60;48.60;;;;;;482226;247;1265;-50
2022/08/10 03:39:13;;;;;;;;;;;21.60;48.60;;;;;;482462;247;1233;-51
2022/08/10 03:41:15;;;;;;;;;;;21.60;48.60;;;;;;482166;247;1385;-50
2022/08/10 03:43:16;;;;;;;;;;;21.60;48.60;;;;;;482405;247;1306;-50
2022/08/10 03:45:17;;;;;;;;;;;21.60;48.60;;;;;;482038;247;1227;-51
2022/08/10 03:47:19;;;;;;;;;;;21.60;48.70;;;;;;482152;246;1299;-51
2022/08/10 03:49:20;;;;;;;;;;;21.60;48.70;;;;;;482201;247;1139;-50
2022/08/10 03:51:21;;;;;;;;;;;21.60;48.60;;;;;;482008;247;1210;-50
2022/08/10 03:53:23;;;;;;;;;;;21.60;48.60;;;;;;481950;246;2172;-51
2022/08/10 03:55:24;;;;;;;;;;;21.60;48.60;;;;;;482038;247;1406;-50
2022/08/10 03:57:28;;;;;;;;;;;21.60;48.60;;;;;;481981;247;1244;-50
2022/08/10 03:59:30;;;;;;;;;;;21.60;48.60;;;;;;482308;247;2477;-51
2022/08/10 04:01:28;;;;;;;;;;;21.60;48.60;;;;;;482119;247;1549;-51
2022/08/10 04:03:29;;;;;;;;;;;21.60;48.60;;;;;;481994;247;1169;-51
2022/08/10 04:05:31;;;;;;;;;;;21.60;48.60;;;;;;482545;246;1136;-50
2022/08/10 04:07:34;;;;;;;;;;;21.60;48.60;;;;;;482078;247;1169;-51
2022/08/10 04:09:34;;;;;;;;;;;21.60;48.70;;;;;;482251;247;2287;-51
2022/08/10 04:11:35;;;;;;;;;;;21.60;48.70;;;;;;481986;247;1267;-51
2022/08/10 04:13:37;;;;;;;;;;;21.60;48.70;;;;;;482035;247;2153;-50
2022/08/10 04:15:38;;;;;;;;;;;21.60;48.70;;;;;;481917;246;1266;-50
2022/08/10 04:17:39;;;;;;;;;;;21.60;48.70;;;;;;482041;247;1325;-51
2022/08/10 04:19:41;;;;;;;;;;;21.60;48.70;;;;;;482024;247;1202;-50
2022/08/10 04:21:42;;;;;;;;;;;21.60;48.70;;;;;;481890;247;1575;-51
2022/08/10 04:23:43;;;;;;;;;;;21.60;48.70;;;;;;482231;247;1239;-51
2022/08/10 04:25:45;;;;;;;;;;;21.60;48.70;;;;;;481988;247;1241;-51
2022/08/10 04:27:46;;;;;;;;;;;21.60;48.70;;;;;;482004;247;1333;-51
2022/08/10 04:29:49;;;;;;;;;;;21.60;48.70;;;;;;482068;247;1182;-51
2022/08/10 04:31:49;;;;;;;;;;;21.60;48.70;;;;;;482044;247;2197;-49
2022/08/10 04:33:50;;;;;;;;;;;21.60;48.70;;;;;;482494;247;2165;-50
2022/08/10 04:35:51;;;;;;;;;;;21.60;48.70;;;;;;482150;247;1218;-51
2022/08/10 04:37:53;;;;;;;;;;;21.60;48.70;;;;;;482098;247;1166;-51
2022/08/10 04:39:54;;;;;;;;;;;21.60;48.60;;;;;;481898;247;1176;-50
2022/08/10 04:41:55;;;;;;;;;;;21.60;48.60;;;;;;482314;247;1157;-50
2022/08/10 04:43:57;;;;;;;;;;;21.60;48.70;;;;;;481991;247;1067;-50
2022/08/10 04:45:58;;;;;;;;;;;21.60;48.70;;;;;;482098;247;1217;-50
2022/08/10 04:47:59;;;;;;;;;;;21.60;48.70;;;;;;482034;247;1166;-51
2022/08/10 04:50:01;;;;;;;;;;;21.60;48.80;;;;;;482078;246;1083;-51
2022/08/10 04:52:02;;;;;;;;;;;21.60;48.70;;;;;;482179;247;1232;-50
2022/08/10 04:54:04;;;;;;;;;;;21.60;48.70;;;;;;482009;247;2165;-51
2022/08/10 04:56:07;;;;;;;;;;;21.60;48.80;;;;;;481202;247;1216;-50
2022/08/10 04:58:06;;;;;;;;;;;21.60;48.70;;;;;;481862;247;2352;-51
2022/08/10 05:00:08;;;;;;;;;;;21.60;48.70;;;;;;481932;247;1146;-50
2022/08/10 05:02:09;;;;;;;;;;;21.60;48.70;;;;;;481813;247;1203;-50
2022/08/10 05:04:10;;;;;;;;;;;21.60;48.70;;;;;;481791;247;1178;-52
2022/08/10 05:06:12;;;;;;;;;;;21.60;48.70;;;;;;481769;246;1176;-50
2022/08/10 05:08:13;;;;;;;;;;;21.60;48.70;;;;;;481874;247;1235;-50
2022/08/10 05:10:14;;;;;;;;;;;21.60;48.80;;;;;;481959;247;1265;-51
2022/08/10 05:12:16;;;;;;;;;;;21.60;48.80;;;;;;482072;247;1533;-51
2022/08/10 05:14:17;;;;;;;;;;;21.60;48.80;;;;;;481717;247;2200;-51
2022/08/10 05:16:18;;;;;;;;;;;21.60;48.80;;;;;;481803;247;1277;-51
2022/08/10 05:18:20;;;;;;;;;;;21.60;48.80;;;;;;481796;247;1294;-50
2022/08/10 05:20:21;;;;;;;;;;;21.60;48.80;;;;;;481961;247;1212;-50
2022/08/10 05:22:22;;;;;;;;;;;21.60;48.80;;;;;;481792;247;1124;-50
2022/08/10 05:24:24;;;;;;;;;;;21.60;48.80;;;;;;481871;247;1152;-50
2022/08/10 05:26:25;;;;;;;;;;;21.60;48.80;;;;;;481856;247;1090;-51
2022/08/10 05:28:26;;;;;;;;;;;21.60;48.80;;;;;;481832;247;1168;-50
2022/08/10 05:30:28;;;;;;;;;;;21.60;48.80;;;;;;481912;247;1219;-50
2022/08/10 05:32:29;;;;;;;;;;;21.60;48.80;;;;;;481815;247;1219;-50
2022/08/10 05:34:30;;;;;;;;;;;21.60;48.80;;;;;;481831;246;2253;-50
2022/08/10 05:36:32;;;;;;;;;;;21.60;48.80;;;;;;481934;247;1183;-50
2022/08/10 05:38:33;;;;;;;;;;;21.60;48.80;;;;;;482079;247;1074;-50
2022/08/10 05:40:36;;;;;;;;;;;21.60;48.80;;;;;;481830;246;1115;-51
2022/08/10 05:42:36;;;;;;;;;;;21.60;48.80;;;;;;481901;247;1497;-51
2022/08/10 05:44:37;;;;;;;;;;;21.60;48.80;;;;;;481845;247;1188;-51
2022/08/10 05:46:39;;;;;;;;;;;21.60;48.80;;;;;;480799;247;1164;-50
2022/08/10 05:48:41;;;;;;;;;;;21.60;48.80;;;;;;481784;247;1267;-50
2022/08/10 05:50:42;;;;;;;;;;;21.60;48.80;;;;;;481900;247;1303;-50
2022/08/10 05:52:43;;;;;;;;;;;21.60;48.80;;;;;;481881;247;1196;-51
2022/08/10 05:54:45;;;;;;;;;;;21.60;48.70;;;;;;481844;247;2204;-50
2022/08/10 05:56:46;;;;;;;;;;;21.60;48.60;;;;;;481632;247;1273;-50
2022/08/10 05:58:48;;;;;;;;;;;21.60;48.50;;;;;;481698;247;1221;-50
2022/08/10 06:00:52;;;;;;;;;;;21.60;48.40;;;;;;481747;247;1255;-50
2022/08/10 06:02:50;;;;;;;;;;;21.60;48.30;;;;;;481983;246;1869;-51
2022/08/10 06:04:52;;;;;;;;;;;21.60;48.20;;;;;;481758;247;1270;-50
2022/08/10 06:06:53;;;;;;;;;;;21.60;48.10;;;;;;481811;247;1227;-51
2022/08/10 06:08:54;;;;;;;;;;;21.60;48.00;;;;;;481638;247;1175;-51
2022/08/10 06:10:56;;;;;;;;;;;21.70;47.90;;;;;;481697;247;1209;-51
2022/08/10 06:15:18;;;;;;;;;;;21.60;47.80;;;;;;472588;246;2204;-51
2022/08/10 06:17:19;;;;;;;;;;;21.70;47.80;;;;;;481692;246;1208;-50
2022/08/10 06:19:20;;;;;;;;;;;21.60;47.60;;;;;;481830;246;1240;-51
2022/08/10 06:21:22;;;;;;;;;;;21.60;47.60;;;;;;481689;247;1389;-51
2022/08/10 06:23:23;;;;;;;;;;;21.70;47.60;;;;;;481772;246;1118;-51
2022/08/10 06:25:25;;;;;;;;;;;21.60;47.50;;;;;;481676;246;1092;-51
2022/08/10 06:27:26;;;;;;;;;;;21.60;47.40;;;;;;481655;247;1167;-50
2022/08/10 06:29:27;;;;;;;;;;;21.60;47.40;;;;;;481624;247;1109;-51
2022/08/10 06:31:29;;;;;;;;;;;21.60;47.40;;;;;;481639;246;1187;-50
2022/08/10 06:33:30;;;;;;;;;;;21.60;47.40;;;;;;481625;246;1141;-51
2022/08/10 06:35:31;;;;;;;;;;;21.70;47.40;;;;;;481633;246;2208;-51
2022/08/10 06:37:33;;;;;;;;;;;21.70;47.30;;;;;;481644;247;1324;-51
2022/08/10 06:39:34;;;;;;;;;;;21.70;47.20;;;;;;481645;247;1232;-51
2022/08/10 06:41:35;;;;;;;;;;;21.70;47.20;;;;;;481650;247;1232;-51
2022/08/10 06:43:37;;;;;;;;;;;21.70;47.20;;;;;;481646;247;1201;-50
2022/08/10 06:45:38;;;;;;;;;;;21.70;47.20;;;;;;481608;247;1388;-50
2022/08/10 06:47:40;;;;;;;;;;;21.60;47.10;;;;;;481537;246;1231;-50
2022/08/10 06:49:41;;;;;;;;;;;21.70;47.10;;;;;;481551;247;1285;-51
2022/08/10 06:51:42;;;;;;;;;;;21.70;47.00;;;;;;481379;247;1343;-51
2022/08/10 06:53:44;;;;;;;;;;;21.70;47.00;;;;;;481469;247;1206;-51
2022/08/10 06:55:45;;;;;;;;;;;21.70;47.00;;;;;;481491;247;2192;-50
2022/08/10 06:57:46;;;;;;;;;;;21.70;46.90;;;;;;481119;247;1205;-51
2022/08/10 06:59:48;;;;;;;;;;;21.70;46.80;;;;;;481498;247;1218;-52
2022/08/10 07:01:49;;;;;;;;;;;21.70;46.90;;;;;;481119;247;1149;-52
2022/08/10 07:03:51;;;;;;;;;;;21.70;46.80;;;;;;481055;247;1235;-52
2022/08/10 07:05:52;;;;;;;;;;;21.70;46.70;;;;;;481509;246;1277;-50
2022/08/10 07:07:53;;;;;;;;;;;21.70;46.80;;;;;;481304;247;1393;-51
2022/08/10 07:09:55;;;;;;;;;;;21.70;46.70;;;;;;481322;246;1090;-51
2022/08/10 07:11:56;;;;;;;;;;;21.70;46.70;;;;;;481386;246;1439;-50
2022/08/10 07:13:57;;;;;;;;;;;21.70;46.70;;;;;;481295;246;1254;-51
2022/08/10 07:15:59;;;;;;;;;;;21.70;46.60;;;;;;481013;246;2183;-51
2022/08/10 07:18:00;;;;;;;;;;;21.70;46.60;;;;;;481269;246;1257;-51
2022/08/10 07:20:01;;;;;;;;;;;21.70;46.50;;;;;;481107;247;1205;-51
2022/08/10 07:22:03;;;;;;;;;;;21.70;46.50;;;;;;481406;246;1255;-51
2022/08/10 07:24:06;;;;;;;;;;;21.70;46.50;;;;;;481396;247;1217;-51
2022/08/10 07:26:06;;;;;;;;;;;21.70;46.40;;;;;;481389;247;2337;-51
2022/08/10 07:28:07;;;;;;;;;;;21.70;46.40;;;;;;481448;246;1198;-51
2022/08/10 07:30:08;;;;;;;;;;;21.70;46.40;;;;;;481359;247;1222;-51
2022/08/10 07:32:10;;;;;;;;;;;21.70;46.40;;;;;;481465;246;1230;-51
2022/08/10 07:34:11;;;;;;;;;;;21.70;46.40;;;;;;481418;246;1201;-51
2022/08/10 07:36:12;;;;;;;;;;;21.70;46.40;;;;;;481159;247;2200;-51
2022/08/10 07:38:14;;;;;;;;;;;21.70;46.40;;;;;;480980;247;1266;-52
2022/08/10 07:40:15;;;;;;;;;;;21.70;46.40;;;;;;481299;246;1262;-51
2022/08/10 07:42:16;;;;;;;;;;;21.70;46.40;;;;;;481343;247;1316;-51
2022/08/10 07:44:18;;;;;;;;;;;21.70;46.30;;;;;;481448;246;1365;-51
2022/08/10 07:46:19;;;;;;;;;;;21.70;46.30;;;;;;481349;246;1195;-51
2022/08/10 07:48:20;;;;;;;;;;;21.80;46.20;;;;;;481358;247;1161;-51
2022/08/10 07:50:22;;;;;;;;;;;21.80;46.20;;;;;;481294;247;1205;-52
2022/08/10 07:52:23;;;;;;;;;;;21.80;46.20;;;;;;481294;246;1201;-51
2022/08/10 07:54:24;;;;;;;;;;;21.70;46.10;;;;;;481289;247;1196;-50
2022/08/10 07:56:26;;;;;;;;;;;21.80;46.20;;;;;;481237;247;2200;-51
2022/08/10 07:58:27;;;;;;;;;;;21.80;46.20;;;;;;481267;247;1255;-51
2022/08/10 08:00:29;;;;;;;;;;;21.80;46.10;;;;;;481431;247;1148;-51
2022/08/10 08:02:30;;;;;;;;;;;21.80;46.10;;;;;;481504;246;1242;-51
2022/08/10 08:04:31;;;;;;;;;;;21.80;46.10;;;;;;481435;247;1249;-51
2022/08/10 08:06:33;;;;;;;;;;;21.80;46.10;;;;;;481417;247;1372;-51
2022/08/10 08:08:34;;;;;;;;;;;21.80;46.10;;;;;;481388;247;1482;-51
2022/08/10 08:10:36;;;;;;;;;;;21.80;46.00;;;;;;481340;247;1237;-51
2022/08/10 08:12:37;;;;;;;;;;;21.80;46.00;;;;;;480876;247;1190;-51
2022/08/10 08:14:40;;;;;;;;;;;21.80;46.00;;;;;;481381;247;1308;-51
2022/08/10 08:16:40;;;;;;;;;;;21.80;46.00;;;;;;481506;247;2200;-51
2022/08/10 08:18:42;;;;;;;;;;;21.80;46.00;;;;;;481619;246;1249;-51
2022/08/10 08:20:43;;;;;;;;;;;21.80;46.00;;;;;;481380;247;1200;-51
2022/08/10 08:22:44;;;;;;;;;;;21.80;46.00;;;;;;481397;247;1223;-51
2022/08/10 08:24:46;;;;;;;;;;;21.80;46.00;;;;;;481345;246;1248;-51
2022/08/10 08:26:47;;;;;;;;;;;21.80;46.00;;;;;;481185;247;1226;-51
2022/08/10 08:28:49;;;;;;;;;;;21.80;46.00;;;;;;481199;246;1270;-51
2022/08/10 08:30:50;;;;;;;;;;;21.80;45.90;;;;;;481290;247;1244;-52
2022/08/10 08:32:51;;;;;;;;;;;21.80;45.90;;;;;;481258;246;1187;-51
2022/08/10 08:34:53;;;;;;;;;;;21.80;45.90;;;;;;481217;247;1181;-51
2022/08/10 08:36:54;;;;;;;;;;;21.80;45.90;;;;;;481301;246;2170;-51
2022/08/10 08:38:55;;;;;;;;;;;21.80;45.90;;;;;;481365;247;1086;-51
2022/08/10 08:40:57;;;;;;;;;;;21.80;45.80;;;;;;481408;246;1161;-51
2022/08/10 08:42:58;;;;;;;;;;;21.90;45.80;;;;;;481396;247;1297;-51
2022/08/10 08:45:00;;;;;;;;;;;21.80;45.80;;;;;;481504;247;1209;-51
2022/08/10 08:47:02;;;;;;;;;;;21.80;45.90;;;;;;480740;247;1192;-51
2022/08/10 08:49:03;;;;;;;;;;;21.80;46.00;;;;;;481929;246;1126;-51
2022/08/10 08:51:04;;;;;;;;;;;21.80;46.10;;;;;;481639;247;1270;-51
2022/08/10 08:53:06;;;;;;;;;;;21.80;46.10;;;;;;481342;247;1288;-51
2022/08/10 08:55:07;;;;;;;;;;;21.80;46.20;;;;;;481253;247;1379;-51
2022/08/10 08:57:08;;;;;;;;;;;21.80;46.20;;;;;;481113;247;2192;-51
2022/08/10 08:59:10;;;;;;;;;;;21.80;46.10;;;;;;481181;247;1341;-51
2022/08/10 09:01:12;;;;;;;;;;;21.80;46.10;;;;;;481140;246;1418;-51
2022/08/10 09:03:13;;;;;;;;;;;21.80;46.10;;;;;;480954;247;1207;-51
2022/08/10 09:05:14;;;;;;;;;;;21.80;46.00;;;;;;481449;247;1234;-51
2022/08/10 09:07:16;;;;;;;;;;;21.80;46.00;;;;;;481262;247;1260;-51
2022/08/10 09:09:17;;;;;;;;;;;21.80;46.00;;;;;;481369;247;1346;-51
2022/08/10 09:11:18;;;;;;;;;;;21.80;46.00;;;;;;481382;246;1268;-51
2022/08/10 09:13:25;;;;;;;;;;;21.80;45.90;;;;;;481375;247;1232;-50
2022/08/10 09:15:21;;;;;;;;;;;21.80;45.90;;;;;;481390;246;2193;-52
2022/08/10 09:17:23;;;;;;;;;;;21.80;45.90;;;;;;481141;247;1265;-51
2022/08/10 09:19:25;;;;;;;;;;;21.80;45.80;;;;;;480947;247;1200;-52
2022/08/10 09:21:26;;;;;;;;;;;21.80;45.80;;;;;;481446;247;1426;-51
2022/08/10 09:23:27;;;;;;;;;;;21.80;45.80;;;;;;481351;247;1106;-51
2022/08/10 09:25:29;;;;;;;;;;;21.80;45.70;;;;;;481394;247;1220;-51
2022/08/10 09:27:30;;;;;;;;;;;21.80;45.70;;;;;;481426;246;1190;-52
2022/08/10 09:29:31;;;;;;;;;;;21.80;45.70;;;;;;481417;247;1232;-51
2022/08/10 09:31:33;;;;;;;;;;;21.70;45.70;;;;;;481216;247;1233;-51
2022/08/10 09:33:34;;;;;;;;;;;21.80;45.70;;;;;;481439;247;1210;-51
2022/08/10 09:35:35;;;;;;;;;;;21.80;45.70;;;;;;481387;247;2197;-52
2022/08/10 09:37:37;;;;;;;;;;;21.80;45.70;;;;;;481278;247;1265;-51
2022/08/10 09:39:38;;;;;;;;;;;21.80;45.60;;;;;;481419;247;1114;-51
2022/08/10 09:41:39;;;;;;;;;;;21.80;45.60;;;;;;481341;246;1096;-51
2022/08/10 09:43:41;;;;;;;;;;;21.80;45.60;;;;;;481332;247;1224;-52
2022/08/10 09:45:42;;;;;;;;;;;21.80;45.60;;;;;;481288;247;1287;-51
2022/08/10 09:47:43;;;;;;;;;;;21.80;45.60;;;;;;481476;247;1121;-50
2022/08/10 09:49:45;;;;;;;;;;;21.80;45.50;;;;;;481422;247;1172;-51
2022/08/10 09:51:47;;;;;;;;;;;21.70;45.50;;;;;;481509;247;1383;-51
2022/08/10 09:53:48;;;;;;;;;;;21.80;45.50;;;;;;481471;247;1260;-51
2022/08/10 09:55:49;;;;;;;;;;;21.80;45.50;;;;;;481335;247;2178;-50
2022/08/10 09:57:51;;;;;;;;;;;21.70;45.40;;;;;;481171;247;1204;-51
2022/08/10 09:59:52;;;;;;;;;;;21.80;45.50;;;;;;481209;247;1362;-51
2022/08/10 10:01:53;;;;;;;;;;;21.70;45.40;;;;;;481234;247;1295;-50
2022/08/10 10:03:55;;;;;;;;;;;21.80;45.50;;;;;;481275;247;1460;-50
2022/08/10 10:05:56;;;;;;;;;;;21.80;45.40;;;;;;481296;247;1242;-51
2022/08/10 10:07:58;;;;;;;;;;;21.70;45.40;;;;;;481417;247;1268;-50
2022/08/10 10:09:59;;;;;;;;;;;21.80;45.40;;;;;;481367;247;1223;-51
2022/08/10 10:12:05;;;;;;;;;;;21.80;45.40;;;;;;481488;247;1208;-51
2022/08/10 10:14:02;;;;;;;;;;;21.80;45.40;;;;;;480439;247;2505;-50
2022/08/10 10:16:03;;;;;;;;;;;21.80;45.30;;;;;;481324;247;2165;-50
2022/08/10 10:18:05;;;;;;;;;;;21.80;45.30;;;;;;481306;246;1191;-51
2022/08/10 10:20:06;;;;;;;;;;;21.80;45.30;;;;;;481449;247;1702;-51
2022/08/10 10:22:07;;;;;;;;;;;21.80;45.30;;;;;;481539;247;1253;-51
2022/08/10 10:24:09;;;;;;;;;;;21.80;45.20;;;;;;481581;247;1146;-51
2022/08/10 10:26:10;;;;;;;;;;;21.70;45.20;;;;;;481292;247;1215;-51
2022/08/10 10:28:12;;;;;;;;;;;21.70;45.10;;;;;;481415;247;1201;-51
2022/08/10 10:30:13;;;;;;;;;;;21.70;45.20;;;;;;481446;247;1253;-50
2022/08/10 10:32:14;;;;;;;;;;;21.80;45.20;;;;;;480988;247;1238;-51
2022/08/10 10:34:16;;;;;;;;;;;21.80;45.20;;;;;;481604;247;1239;-51
2022/08/10 10:36:17;;;;;;;;;;;21.70;45.20;;;;;;481257;247;2204;-50
2022/08/10 10:38:18;;;;;;;;;;;21.80;45.20;;;;;;481482;247;1179;-51
2022/08/10 10:40:20;;;;;;;;;;;21.80;45.10;;;;;;481627;246;1053;-51
2022/08/10 10:42:21;;;;;;;;;;;21.80;45.10;;;;;;481710;247;1253;-50
2022/08/10 10:44:22;;;;;;;;;;;21.80;45.20;;;;;;481408;247;1284;-51
2022/08/10 10:46:24;;;;;;;;;;;21.70;45.10;;;;;;481461;247;1319;-51
2022/08/10 10:48:25;;;;;;;;;;;21.70;45.10;;;;;;481399;247;1372;-51
2022/08/10 10:50:26;;;;;;;;;;;21.80;45.10;;;;;;481589;246;1470;-51
2022/08/10 10:52:28;;;;;;;;;;;21.80;45.10;;;;;;481593;246;1313;-51
2022/08/10 10:54:29;;;;;;;;;;;21.80;45.10;;;;;;481419;246;1319;-51
2022/08/10 10:56:31;;;;;;;;;;;21.80;45.20;;;;;;481293;246;2200;-51
2022/08/10 10:58:32;;;;;;;;;;;21.70;45.20;;;;;;481086;247;1294;-51
2022/08/10 11:00:34;;;;;;;;;;;21.80;45.40;;;;;;481980;247;1330;-51
2022/08/10 11:02:35;;;;;;;;;;;21.80;45.30;;;;;;481474;247;1141;-51
2022/08/10 11:04:36;;;;;;;;;;;21.80;45.20;;;;;;481177;247;1275;-51
2022/08/10 11:06:38;;;;;;;;;;;21.80;45.20;;;;;;481357;247;1353;-51
2022/08/10 11:08:39;;;;;;;;;;;21.80;45.20;;;;;;481642;247;1417;-51
2022/08/10 11:10:41;;;;;;;;;;;21.80;45.20;;;;;;481447;247;1374;-50
2022/08/10 11:12:43;;;;;;;;;;;21.80;45.10;;;;;;481456;247;1377;-51
2022/08/10 11:14:44;;;;;;;;;;;21.80;45.10;;;;;;481445;247;1274;-51
2022/08/10 11:16:46;;;;;;;;;;;21.80;45.10;;;;;;481368;247;2193;-51
2022/08/10 11:18:47;;;;;;;;;;;21.80;45.20;;;;;;481437;247;1854;-51
2022/08/10 11:20:48;;;;;;;;;;;21.70;45.10;;;;;;481447;246;1232;-51
2022/08/10 11:22:49;;;;;;;;;;;21.80;45.10;;;;;;481591;246;1237;-51
2022/08/10 11:24:51;;;;;;;;;;;21.80;45.00;;;;;;481358;247;1230;-50
2022/08/10 11:26:52;;;;;;;;;;;21.80;45.10;;;;;;481228;246;1673;-50
2022/08/10 11:28:53;;;;;;;;;;;21.80;45.00;;;;;;481204;247;1177;-51
2022/08/10 11:30:55;;;;;;;;;;;21.80;45.00;;;;;;481290;246;1332;-51
2022/08/10 11:32:56;;;;;;;;;;;21.80;45.00;;;;;;481420;246;1343;-51
2022/08/10 11:34:57;;;;;;;;;;;21.80;44.90;;;;;;481448;246;1256;-51
2022/08/10 11:36:59;;;;;;;;;;;21.80;44.90;;;;;;481402;247;2174;-51
2022/08/10 11:39:00;;;;;;;;;;;21.80;45.00;;;;;;481398;247;1175;-51
2022/08/10 11:41:01;;;;;;;;;;;21.80;44.90;;;;;;481513;247;1219;-51
2022/08/10 11:43:03;;;;;;;;;;;21.80;44.90;;;;;;481564;247;1196;-51
2022/08/10 11:45:04;;;;;;;;;;;21.80;45.00;;;;;;481462;247;1654;-51
2022/08/10 11:47:05;;;;;;;;;;;21.80;44.90;;;;;;481384;247;1584;-51
2022/08/10 11:49:07;;;;;;;;;;;21.80;44.90;;;;;;481528;246;1185;-52
2022/08/10 11:51:08;;;;;;;;;;;21.80;44.90;;;;;;481354;247;1228;-51
2022/08/10 11:53:10;;;;;;;;;;;21.80;44.90;;;;;;481329;246;1187;-51
2022/08/10 11:55:11;;;;;;;;;;;21.80;44.80;;;;;;481339;246;1214;-51
2022/08/10 11:57:12;;;;;;;;;;;21.80;44.80;;;;;;481301;247;2202;-50
2022/08/10 12:01:33;;;;;;;;;;;21.80;44.90;;;;;;481363;247;1144;-51
2022/08/10 12:03:34;;;;;;;;;;;21.80;44.80;;;;;;481367;247;1165;-50